createdAt,value
2018-06-30T00:02:18.820Z,21.63
2018-06-30T00:04:51.918Z,20.53
2018-06-30T00:07:21.678Z,22.00
2018-06-30T00:09:50.153Z,21.20
2018-06-30T00:12:18.669Z,21.13
2018-06-30T00:14:47.661Z,23.03
2018-06-30T00:17:16.183Z,21.40
2018-06-30T00:19:44.674Z,21.87
2018-06-30T00:22:13.280Z,19.17
2018-06-30T00:24:41.796Z,22.10
2018-06-30T00:27:16.174Z,21.87
2018-06-30T00:29:44.821Z,19.70
2018-06-30T00:32:13.322Z,23.30
2018-06-30T00:34:41.975Z,20.53
2018-06-30T00:37:10.482Z,18.47
2018-06-30T00:39:38.949Z,22.63
2018-06-30T00:42:07.454Z,19.60
2018-06-30T00:44:36.075Z,23.50
2018-06-30T00:47:04.565Z,21.00
2018-06-30T00:49:33.033Z,23.90
2018-06-30T00:52:01.542Z,22.40
2018-06-30T00:54:30.031Z,23.57
2018-06-30T00:56:58.570Z,21.47
2018-06-30T00:59:27.077Z,22.53
2018-06-30T01:01:55.553Z,23.00
2018-06-30T01:04:24.316Z,23.27
2018-06-30T01:06:52.857Z,21.43
2018-06-30T01:09:21.429Z,24.50
2018-06-30T01:11:50.379Z,26.30
2018-06-30T01:14:18.881Z,21.47
2018-06-30T01:16:47.385Z,22.57
2018-06-30T01:19:15.902Z,22.00
2018-06-30T01:21:44.761Z,23.60
2018-06-30T01:24:13.302Z,22.37
2018-06-30T01:26:41.778Z,22.43
2018-06-30T01:29:10.322Z,21.20
2018-06-30T01:31:38.813Z,21.53
2018-06-30T01:34:07.324Z,22.90
2018-06-30T01:36:35.841Z,23.80
2018-06-30T01:39:06.147Z,20.63
2018-06-30T01:41:34.769Z,22.50
2018-06-30T01:44:03.797Z,23.20
2018-06-30T01:46:32.369Z,24.93
2018-06-30T01:49:00.857Z,21.60
2018-06-30T01:51:29.660Z,23.07
2018-06-30T01:53:58.197Z,23.23
2018-06-30T01:56:26.887Z,19.37
2018-06-30T01:58:55.374Z,20.73
2018-06-30T02:01:23.849Z,21.07
2018-06-30T02:03:52.464Z,20.80
2018-06-30T02:06:21.017Z,23.07
2018-06-30T02:08:49.678Z,22.63
2018-06-30T02:11:18.242Z,21.23
2018-06-30T02:13:46.733Z,21.03
2018-06-30T02:16:15.259Z,20.50
2018-06-30T02:18:43.797Z,19.97
2018-06-30T02:21:12.331Z,20.90
2018-06-30T02:23:40.849Z,19.60
2018-06-30T02:26:09.316Z,21.00
2018-06-30T02:28:37.849Z,21.20
2018-06-30T02:31:06.858Z,20.50
2018-06-30T02:33:35.342Z,20.70
2018-06-30T02:36:03.810Z,20.90
2018-06-30T02:38:32.453Z,19.83
2018-06-30T02:41:00.975Z,19.10
2018-06-30T02:43:29.425Z,18.83
2018-06-30T02:45:57.946Z,21.00
2018-06-30T02:48:26.545Z,21.27
2018-06-30T02:50:55.081Z,19.80
2018-06-30T02:53:23.583Z,20.00
2018-06-30T02:55:52.098Z,19.00
2018-06-30T02:58:20.650Z,19.57
2018-06-30T03:00:49.367Z,20.07
2018-06-30T03:03:18.439Z,16.90
2018-06-30T03:05:46.982Z,17.33
2018-06-30T03:08:15.689Z,18.03
2018-06-30T03:10:44.438Z,18.70
2018-06-30T03:13:13.014Z,16.00
2018-06-30T03:15:41.550Z,15.90
2018-06-30T03:18:10.517Z,15.57
2018-06-30T03:20:39.214Z,17.30
2018-06-30T03:23:08.011Z,16.50
2018-06-30T03:25:36.572Z,18.33
2018-06-30T03:28:05.166Z,16.40
2018-06-30T03:30:33.657Z,15.53
2018-06-30T03:33:02.261Z,18.13
2018-06-30T03:35:30.775Z,16.50
2018-06-30T03:37:59.310Z,15.03
2018-06-30T03:40:27.805Z,15.33
2018-06-30T03:42:56.862Z,13.77
2018-06-30T03:45:25.357Z,14.80
2018-06-30T03:47:53.855Z,14.57
2018-06-30T03:50:22.450Z,14.33
2018-06-30T03:52:51.025Z,14.23
2018-06-30T03:55:19.578Z,13.17
2018-06-30T03:57:48.106Z,14.00
2018-06-30T04:00:16.774Z,13.50
2018-06-30T04:02:45.265Z,13.23
2018-06-30T04:05:13.770Z,12.50
2018-06-30T04:07:42.269Z,12.70
2018-06-30T04:10:10.756Z,13.03
2018-06-30T04:12:39.319Z,9.57
2018-06-30T04:15:07.812Z,11.00
2018-06-30T04:17:36.319Z,11.30
2018-06-30T04:20:04.995Z,9.40
2018-06-30T04:22:33.514Z,9.43
2018-06-30T04:25:01.993Z,9.17
2018-06-30T04:27:30.473Z,9.47
2018-06-30T04:29:58.969Z,7.43
2018-06-30T04:32:27.619Z,7.87
2018-06-30T04:34:56.102Z,8.20
2018-06-30T04:37:24.565Z,8.67
2018-06-30T04:39:53.050Z,9.40
2018-06-30T04:42:21.546Z,9.73
2018-06-30T04:44:50.053Z,8.27
2018-06-30T04:47:18.578Z,8.20
2018-06-30T04:49:47.053Z,8.53
2018-06-30T04:52:15.535Z,8.00
2018-06-30T04:54:44.138Z,7.87
2018-06-30T04:57:12.783Z,8.23
2018-06-30T04:59:41.256Z,7.33
2018-06-30T05:02:09.762Z,7.80
2018-06-30T05:04:38.701Z,7.23
2018-06-30T05:07:07.202Z,8.13
2018-06-30T05:09:35.710Z,6.70
2018-06-30T05:12:04.271Z,6.70
2018-06-30T05:14:32.787Z,6.77
2018-06-30T05:17:01.298Z,5.83
2018-06-30T05:19:29.776Z,6.13
2018-06-30T05:21:58.287Z,5.63
2018-06-30T05:24:26.898Z,6.10
2018-06-30T05:26:55.416Z,5.93
2018-06-30T05:29:23.930Z,5.90
2018-06-30T05:31:52.445Z,5.97
2018-06-30T05:34:20.913Z,6.17
2018-06-30T05:36:49.499Z,5.53
2018-06-30T05:39:18.028Z,6.60
2018-06-30T05:41:46.497Z,6.20
2018-06-30T05:44:14.966Z,5.27
2018-06-30T05:46:43.693Z,5.67
2018-06-30T05:49:12.162Z,5.40
2018-06-30T05:51:40.638Z,4.90
2018-06-30T05:54:09.287Z,5.77
2018-06-30T05:56:37.773Z,5.10
2018-06-30T05:59:06.281Z,5.40
2018-06-30T06:01:34.820Z,5.40
2018-06-30T06:04:03.358Z,5.40
2018-06-30T06:06:31.837Z,5.00
2018-06-30T06:09:00.313Z,5.40
2018-06-30T06:11:28.858Z,4.80
2018-06-30T06:13:57.373Z,4.30
2018-06-30T06:16:25.845Z,4.27
2018-06-30T06:18:54.321Z,4.67
2018-06-30T06:21:22.903Z,4.43
2018-06-30T06:23:51.443Z,3.57
2018-06-30T06:26:19.962Z,4.30
2018-06-30T06:28:48.541Z,4.10
2018-06-30T06:31:17.050Z,3.97
2018-06-30T06:33:45.529Z,4.07
2018-06-30T06:36:14.014Z,2.80
2018-06-30T06:38:42.489Z,3.47
2018-06-30T06:41:10.973Z,3.33
2018-06-30T06:43:39.463Z,2.97
2018-06-30T06:46:08.620Z,3.37
2018-06-30T06:48:37.110Z,2.50
2018-06-30T06:51:05.656Z,3.23
2018-06-30T06:53:34.191Z,2.93
2018-06-30T06:56:02.717Z,2.60
2018-06-30T06:58:31.286Z,2.73
2018-06-30T07:00:59.925Z,2.60
2018-06-30T07:03:28.421Z,2.37
2018-06-30T07:05:56.921Z,2.50
2018-06-30T07:08:25.441Z,2.10
2018-06-30T07:10:53.958Z,2.40
2018-06-30T07:13:23.297Z,2.70
2018-06-30T07:15:52.150Z,2.33
2018-06-30T07:18:20.477Z,2.47
2018-06-30T07:20:49.043Z,2.00
2018-06-30T07:23:17.633Z,2.03
2018-06-30T07:25:46.106Z,1.97
2018-06-30T07:28:14.582Z,2.10
2018-06-30T07:30:43.608Z,1.83
2018-06-30T07:33:12.089Z,1.60
2018-06-30T07:35:40.617Z,1.73
2018-06-30T07:38:09.114Z,1.90
2018-06-30T07:40:37.588Z,1.70
2018-06-30T07:43:06.609Z,2.23
2018-06-30T07:45:35.047Z,1.57
2018-06-30T07:48:03.551Z,2.00
2018-06-30T07:50:32.109Z,1.47
2018-06-30T07:53:00.670Z,1.80
2018-06-30T07:55:29.246Z,2.17
2018-06-30T07:57:57.714Z,1.30
2018-06-30T08:00:26.529Z,1.53
2018-06-30T08:02:55.157Z,1.50
2018-06-30T08:05:23.674Z,1.30
2018-06-30T08:07:52.225Z,1.30
2018-06-30T08:10:21.639Z,1.33
2018-06-30T08:12:50.278Z,1.23
2018-06-30T08:15:18.794Z,1.10
2018-06-30T08:17:47.272Z,1.47
2018-06-30T08:20:15.758Z,1.30
2018-06-30T08:22:44.305Z,1.00
2018-06-30T08:25:12.773Z,1.13
2018-06-30T08:27:41.342Z,1.17
2018-06-30T08:30:09.869Z,1.10
2018-06-30T08:32:38.385Z,1.07
2018-06-30T08:35:06.959Z,1.37
2018-06-30T08:37:35.540Z,2.67
2018-06-30T08:40:04.090Z,0.83
2018-06-30T08:42:32.615Z,0.93
2018-06-30T08:45:01.493Z,0.73
2018-06-30T08:47:30.133Z,0.90
2018-06-30T08:49:58.740Z,1.00
2018-06-30T08:52:27.254Z,0.90
2018-06-30T08:54:56.080Z,1.00
2018-06-30T08:57:24.665Z,0.90
2018-06-30T08:59:53.340Z,0.77
2018-06-30T09:02:21.930Z,1.70
2018-06-30T09:06:19.991Z,0.93
2018-06-30T09:08:48.605Z,0.80
2018-06-30T09:11:17.226Z,0.80
2018-06-30T09:13:45.709Z,1.03
2018-06-30T09:16:14.228Z,0.80
2018-06-30T09:18:43.039Z,0.80
2018-06-30T09:21:11.916Z,0.70
2018-06-30T09:23:40.421Z,0.70
2018-06-30T09:26:08.906Z,1.00
2018-06-30T09:28:37.564Z,1.00
2018-06-30T09:31:06.138Z,0.87
2018-06-30T09:33:34.669Z,0.73
2018-06-30T09:36:03.336Z,0.70
2018-06-30T09:38:32.425Z,0.60
2018-06-30T09:41:01.126Z,0.60
2018-06-30T09:43:29.589Z,0.70
2018-06-30T09:45:58.565Z,0.70
2018-06-30T09:48:27.088Z,0.70
2018-06-30T09:50:55.585Z,0.80
2018-06-30T09:53:24.125Z,1.00
2018-06-30T09:55:52.604Z,0.87
2018-06-30T09:58:21.185Z,0.70
2018-06-30T10:00:50.751Z,0.80
2018-06-30T10:03:19.682Z,1.00
2018-06-30T10:05:48.185Z,0.90
2018-06-30T10:08:16.722Z,0.60
2018-06-30T10:10:45.319Z,0.70
2018-06-30T10:13:13.817Z,0.70
2018-06-30T10:15:42.405Z,0.60
2018-06-30T10:18:11.266Z,0.67
2018-06-30T10:20:39.819Z,0.70
2018-06-30T10:23:08.299Z,0.90
2018-06-30T10:25:36.848Z,0.77
2018-06-30T10:28:05.409Z,0.80
2018-06-30T10:30:33.946Z,0.60
2018-06-30T10:33:02.647Z,0.70
2018-06-30T10:35:31.394Z,0.60
2018-06-30T10:38:00.066Z,0.80
2018-06-30T10:40:28.725Z,0.73
2018-06-30T10:42:57.206Z,0.57
2018-06-30T10:45:25.798Z,0.80
2018-06-30T10:47:54.378Z,0.63
2018-06-30T10:50:22.945Z,0.90
2018-06-30T10:52:51.483Z,0.70
2018-06-30T10:55:19.976Z,0.80
2018-06-30T10:57:48.610Z,0.60
2018-06-30T11:00:17.203Z,0.70
2018-06-30T11:02:45.645Z,0.60
2018-06-30T11:05:14.273Z,0.70
2018-06-30T11:07:42.710Z,0.60
2018-06-30T11:10:11.358Z,0.60
2018-06-30T11:12:40.176Z,0.60
2018-06-30T11:15:09.198Z,0.70
2018-06-30T11:17:37.722Z,0.70
2018-06-30T11:20:06.329Z,1.07
2018-06-30T11:22:34.832Z,0.67
2018-06-30T11:25:03.357Z,0.50
2018-06-30T11:27:31.870Z,0.90
2018-06-30T11:30:00.384Z,0.77
2018-06-30T11:32:28.884Z,0.60
2018-06-30T11:34:57.388Z,0.97
2018-06-30T11:37:25.871Z,0.53
2018-06-30T11:39:55.033Z,0.50
2018-06-30T11:42:23.538Z,0.70
2018-06-30T11:44:52.064Z,0.60
2018-06-30T11:47:20.754Z,0.70
2018-06-30T11:49:49.289Z,1.07
2018-06-30T11:52:18.262Z,0.60
2018-06-30T11:54:46.754Z,0.60
2018-06-30T11:57:15.238Z,0.57
2018-06-30T11:59:43.757Z,0.70
2018-06-30T12:02:12.386Z,0.60
2018-06-30T12:04:40.753Z,0.60
2018-06-30T12:07:09.414Z,0.50
2018-06-30T12:09:37.958Z,0.70
2018-06-30T12:12:06.474Z,0.67
2018-06-30T12:14:34.954Z,0.60
2018-06-30T12:17:03.827Z,0.57
2018-06-30T12:19:32.310Z,0.70
2018-06-30T12:22:00.842Z,0.60
2018-06-30T12:24:29.338Z,0.70
2018-06-30T12:26:57.842Z,0.80
2018-06-30T12:29:26.400Z,0.57
2018-06-30T12:31:54.929Z,0.63
2018-06-30T12:34:23.485Z,0.50
2018-06-30T12:36:52.003Z,0.60
2018-06-30T12:39:20.587Z,0.70
2018-06-30T12:41:49.337Z,0.60
2018-06-30T12:44:17.852Z,0.60
2018-06-30T12:46:46.333Z,0.77
2018-06-30T12:49:14.838Z,0.70
2018-06-30T12:51:43.320Z,0.70
2018-06-30T12:54:11.898Z,0.70
2018-06-30T12:56:40.383Z,0.60
2018-06-30T12:59:08.901Z,0.80
2018-06-30T13:01:37.479Z,0.70
2018-06-30T13:04:06.169Z,0.60
2018-06-30T13:06:34.914Z,0.60
2018-06-30T13:09:03.944Z,0.60
2018-06-30T13:11:32.425Z,0.50
2018-06-30T13:14:00.905Z,0.60
2018-06-30T13:16:29.524Z,0.50
2018-06-30T13:18:57.984Z,0.70
2018-06-30T13:21:26.958Z,0.60
2018-06-30T13:23:55.465Z,0.70
2018-06-30T13:26:23.974Z,0.80
2018-06-30T13:28:52.693Z,0.60
2018-06-30T13:31:21.209Z,0.67
2018-06-30T13:33:49.726Z,0.53
2018-06-30T13:36:18.268Z,0.90
2018-06-30T13:38:46.879Z,1.27
2018-06-30T13:41:15.404Z,0.60
2018-06-30T13:43:43.995Z,0.70
2018-06-30T13:46:12.509Z,0.73
2018-06-30T13:48:41.045Z,0.63
2018-06-30T13:51:09.593Z,0.60
2018-06-30T13:53:38.134Z,0.60
2018-06-30T13:56:07.173Z,1.67
2018-06-30T13:58:35.714Z,0.70
2018-06-30T14:01:04.728Z,0.70
2018-06-30T14:03:33.258Z,0.77
2018-06-30T14:06:01.830Z,0.80
2018-06-30T14:08:30.370Z,0.90
2018-06-30T14:10:58.892Z,0.70
2018-06-30T14:13:27.435Z,0.73
2018-06-30T14:15:55.906Z,0.60
2018-06-30T14:18:24.457Z,0.80
2018-06-30T14:20:53.317Z,0.67
2018-06-30T14:23:21.881Z,0.80
2018-06-30T14:25:50.395Z,0.57
2018-06-30T14:28:18.982Z,0.60
2018-06-30T14:30:47.458Z,0.57
2018-06-30T14:33:15.970Z,0.60
2018-06-30T14:35:44.541Z,0.87
2018-06-30T14:38:13.049Z,0.60
2018-06-30T14:40:41.545Z,0.60
2018-06-30T14:43:10.272Z,0.50
2018-06-30T14:45:38.766Z,0.67
2018-06-30T14:48:07.242Z,0.70
2018-06-30T14:50:35.946Z,0.60
2018-06-30T14:53:04.506Z,0.73
2018-06-30T14:55:33.058Z,0.80
2018-06-30T14:58:01.618Z,0.83
2018-06-30T15:00:30.113Z,1.00
2018-06-30T15:02:58.618Z,0.80
2018-06-30T15:05:27.346Z,0.90
2018-06-30T15:07:55.890Z,0.87
2018-06-30T15:10:24.410Z,1.00
2018-06-30T15:12:52.998Z,0.93
2018-06-30T15:15:21.494Z,0.90
2018-06-30T15:17:50.070Z,0.73
2018-06-30T15:20:18.651Z,1.03
2018-06-30T15:22:47.242Z,1.00
2018-06-30T15:25:15.777Z,0.90
2018-06-30T15:27:44.342Z,0.77
2018-06-30T15:30:12.846Z,0.80
2018-06-30T15:32:41.443Z,1.00
2018-06-30T15:35:09.959Z,0.97
2018-06-30T15:37:38.432Z,0.90
2018-06-30T15:40:07.661Z,0.80
2018-06-30T15:42:36.182Z,2.60
2018-06-30T15:45:05.937Z,1.10
2018-06-30T15:47:34.925Z,1.13
2018-06-30T15:50:03.476Z,1.17
2018-06-30T15:52:32.186Z,1.00
2018-06-30T15:55:00.821Z,0.90
2018-06-30T15:57:29.290Z,0.80
2018-06-30T15:59:57.781Z,0.97
2018-06-30T16:02:26.347Z,0.80
2018-06-30T16:04:54.861Z,0.97
2018-06-30T16:07:23.566Z,0.90
2018-06-30T16:09:52.505Z,1.03
2018-06-30T16:12:21.003Z,0.90
2018-06-30T16:14:49.646Z,0.90
2018-06-30T16:17:18.141Z,1.00
2018-06-30T16:19:46.638Z,1.27
2018-06-30T16:22:15.121Z,1.00
2018-06-30T16:24:43.629Z,0.77
2018-06-30T16:27:12.139Z,1.00
2018-06-30T16:29:40.649Z,1.17
2018-06-30T16:32:09.171Z,0.83
2018-06-30T16:34:37.700Z,0.80
2018-06-30T16:37:06.223Z,1.10
2018-06-30T16:39:34.726Z,1.53
2018-06-30T16:42:03.325Z,1.30
2018-06-30T16:44:32.449Z,1.43
2018-06-30T16:47:00.991Z,1.73
2018-06-30T16:49:29.663Z,1.27
2018-06-30T16:51:58.218Z,1.27
2018-06-30T16:54:26.878Z,1.30
2018-06-30T16:56:55.382Z,0.97
2018-06-30T16:59:23.885Z,1.00
2018-06-30T17:01:52.424Z,1.03
2018-06-30T17:04:21.273Z,1.17
2018-06-30T17:06:49.894Z,0.80
2018-06-30T17:09:18.388Z,0.80
2018-06-30T17:11:46.910Z,0.70
2018-06-30T17:14:15.428Z,0.70
2018-06-30T17:16:43.914Z,0.70
2018-06-30T17:19:12.431Z,1.00
2018-06-30T17:21:40.918Z,0.90
2018-06-30T17:24:09.531Z,0.90
2018-06-30T17:26:38.042Z,1.07
2018-06-30T17:29:06.574Z,0.70
2018-06-30T17:31:35.082Z,0.90
2018-06-30T17:34:03.591Z,0.90
2018-06-30T17:36:32.125Z,0.90
2018-06-30T17:39:00.605Z,1.00
2018-06-30T17:41:29.481Z,0.90
2018-06-30T17:43:57.953Z,0.70
2018-06-30T17:46:26.480Z,0.70
2018-06-30T17:48:55.184Z,0.80
2018-06-30T17:51:23.742Z,0.93
2018-06-30T17:53:52.358Z,0.90
2018-06-30T17:56:20.865Z,1.17
2018-06-30T17:58:49.775Z,0.90
2018-06-30T18:01:18.289Z,0.80
2018-06-30T18:03:46.805Z,1.00
2018-06-30T18:06:15.392Z,0.83
2018-06-30T18:08:43.885Z,0.63
2018-06-30T18:11:12.354Z,0.70
2018-06-30T18:13:41.356Z,0.90
2018-06-30T18:16:09.887Z,0.90
2018-06-30T18:18:38.567Z,0.90
2018-06-30T18:21:07.122Z,0.80
2018-06-30T18:23:35.671Z,0.80
2018-06-30T18:26:04.206Z,1.03
2018-06-30T18:28:32.763Z,0.60
2018-06-30T18:31:01.285Z,0.83
2018-06-30T18:33:29.902Z,0.80
2018-06-30T18:35:58.421Z,0.73
2018-06-30T18:38:26.901Z,0.90
2018-06-30T18:40:55.526Z,0.70
2018-06-30T18:43:24.036Z,0.60
2018-06-30T18:45:52.515Z,0.53
2018-06-30T18:48:21.544Z,0.67
2018-06-30T18:50:50.022Z,0.60
2018-06-30T18:53:18.496Z,0.90
2018-06-30T18:55:46.989Z,0.83
2018-06-30T18:58:15.714Z,0.70
2018-06-30T19:00:44.189Z,0.70
2018-06-30T19:03:12.707Z,0.60
2018-06-30T19:05:41.585Z,1.17
2018-06-30T19:08:10.144Z,0.53
2018-06-30T19:10:38.969Z,0.70
2018-06-30T19:13:07.529Z,0.90
2018-06-30T19:15:36.041Z,0.80
2018-06-30T19:18:04.580Z,0.80
2018-06-30T19:20:33.123Z,0.80
2018-06-30T19:23:01.593Z,0.90
2018-06-30T19:25:30.578Z,1.17
2018-06-30T19:27:59.048Z,0.80
2018-06-30T19:30:27.713Z,0.70
2018-06-30T19:32:56.328Z,0.67
2018-06-30T19:35:30.257Z,0.80
2018-06-30T19:37:58.781Z,0.90
2018-06-30T19:40:27.774Z,0.60
2018-06-30T19:42:56.238Z,0.60
2018-06-30T19:45:25.179Z,0.70
2018-06-30T19:47:53.889Z,0.90
2018-06-30T19:50:22.394Z,1.00
2018-06-30T19:52:51.005Z,0.90
2018-06-30T19:55:20.107Z,0.70
2018-06-30T19:57:48.717Z,0.60
2018-06-30T20:00:17.233Z,1.00
2018-06-30T20:02:45.746Z,0.80
2018-06-30T20:05:14.295Z,0.80
2018-06-30T20:07:48.222Z,1.03
2018-06-30T20:10:16.825Z,0.80
2018-06-30T20:12:45.565Z,0.70
2018-06-30T20:15:14.355Z,0.70
2018-06-30T20:17:42.997Z,0.80
2018-06-30T20:20:12.026Z,0.73
2018-06-30T20:22:40.501Z,1.23
2018-06-30T20:25:09.193Z,0.87
2018-06-30T20:27:37.687Z,1.13
2018-06-30T20:30:06.801Z,0.90
2018-06-30T20:32:35.323Z,0.77
2018-06-30T20:35:03.872Z,0.90
2018-06-30T20:37:32.426Z,1.00
2018-06-30T20:40:00.941Z,1.03
2018-06-30T20:42:29.459Z,1.00
2018-06-30T20:44:58.072Z,1.43
2018-06-30T20:47:26.619Z,1.07
2018-06-30T20:49:55.134Z,1.23
2018-06-30T20:52:23.710Z,1.37
2018-06-30T20:54:52.169Z,0.87
2018-06-30T20:57:20.865Z,1.13
2018-06-30T20:59:49.460Z,1.50
2018-06-30T21:02:17.973Z,1.83
2018-06-30T21:04:46.861Z,3.70
2018-06-30T21:07:15.365Z,3.00
2018-06-30T21:09:43.860Z,2.20
2018-06-30T21:12:12.394Z,1.87
2018-06-30T21:14:40.929Z,1.77
2018-06-30T21:17:09.465Z,1.73
2018-06-30T21:19:38.433Z,1.73
2018-06-30T21:22:07.368Z,2.33
2018-06-30T21:24:36.256Z,1.20
2018-06-30T21:27:05.275Z,1.73
2018-06-30T21:29:33.831Z,1.33
2018-06-30T21:32:02.493Z,1.00
2018-06-30T21:34:31.457Z,1.10
2018-06-30T21:37:01.796Z,1.33
2018-06-30T21:39:30.301Z,1.33
2018-06-30T21:41:58.821Z,1.00
2018-06-30T21:44:27.729Z,1.30
2018-06-30T21:46:56.245Z,1.40
2018-06-30T21:49:24.729Z,1.90
2018-06-30T21:51:53.402Z,1.20
2018-06-30T21:54:21.929Z,1.23
2018-06-30T21:56:50.776Z,1.27
2018-06-30T21:59:19.438Z,2.20
2018-06-30T22:01:47.991Z,2.00
2018-06-30T22:04:16.549Z,1.77
2018-06-30T22:06:45.042Z,1.23
2018-06-30T22:09:13.717Z,1.33
2018-06-30T22:11:42.181Z,1.70
2018-06-30T22:14:10.673Z,1.97
2018-06-30T22:16:39.242Z,1.80
2018-06-30T22:19:07.870Z,2.00
2018-06-30T22:21:36.368Z,1.80
2018-06-30T22:24:04.917Z,2.10
2018-06-30T22:26:33.562Z,1.80
2018-06-30T22:29:03.117Z,2.00
2018-06-30T22:31:31.709Z,2.07
2018-06-30T22:34:00.259Z,2.03
2018-06-30T22:36:28.761Z,1.80
2018-06-30T22:38:57.363Z,1.67
2018-06-30T22:41:25.910Z,1.83
2018-06-30T22:43:54.385Z,1.50
2018-06-30T22:46:23.264Z,1.17
2018-06-30T22:48:51.895Z,1.30
2018-06-30T22:51:20.405Z,1.00
2018-06-30T22:53:48.986Z,1.00
2018-06-30T22:56:17.489Z,1.07
2018-06-30T22:58:45.997Z,1.10
2018-06-30T23:01:14.529Z,0.87
2018-06-30T23:03:43.063Z,1.33
2018-06-30T23:06:11.557Z,0.97
2018-06-30T23:08:45.949Z,1.47
2018-06-30T23:11:14.449Z,1.10
2018-06-30T23:13:42.919Z,1.40
2018-06-30T23:16:11.493Z,0.90
2018-06-30T23:18:40.862Z,1.10
2018-06-30T23:21:09.329Z,1.10
2018-06-30T23:23:37.805Z,1.43
2018-06-30T23:26:06.445Z,1.00
2018-06-30T23:28:34.941Z,1.23
2018-06-30T23:31:03.513Z,1.50
2018-06-30T23:33:32.234Z,1.13
2018-06-30T23:36:00.789Z,1.00
2018-06-30T23:38:29.349Z,1.50
2018-06-30T23:40:57.877Z,1.07
2018-06-30T23:43:26.495Z,1.20
2018-06-30T23:45:55.353Z,1.10
2018-06-30T23:48:23.930Z,1.00
2018-06-30T23:50:52.421Z,1.10
2018-06-30T23:53:20.929Z,0.93
2018-06-30T23:55:49.550Z,1.10
2018-06-30T23:58:18.054Z,1.10
